createdAt,value
2023-04-02T00:01:06.306Z,98175.97
2023-04-02T00:04:14.423Z,98159.09
2023-04-02T00:06:45.705Z,98157.44
2023-04-02T00:09:32.040Z,98150.66
2023-04-02T00:12:15.828Z,98139.78
2023-04-02T00:14:49.400Z,98127.94
2023-04-02T00:17:17.481Z,98124.56
2023-04-02T00:19:51.115Z,98097.53
2023-04-02T00:22:22.942Z,98094.16
2023-04-02T00:24:52.866Z,98095.88
2023-04-02T00:27:22.494Z,98091.66
2023-04-02T00:29:51.832Z,98092.50
2023-04-02T00:32:26.261Z,98095.03
2023-04-02T00:34:55.167Z,98090.00
2023-04-02T00:37:28.126Z,98066.47
2023-04-02T00:40:01.561Z,98065.56
2023-04-02T00:42:32.143Z,98061.41
2023-04-02T00:45:02.431Z,98042.81
2023-04-02T00:47:35.404Z,98032.75
2023-04-02T00:50:08.770Z,98013.41
2023-04-02T00:52:37.232Z,97994.84
2023-04-02T00:55:11.103Z,97988.22
2023-04-02T00:57:43.015Z,97982.28
2023-04-02T01:00:23.836Z,97970.50
2023-04-02T01:03:29.899Z,97961.22
2023-04-02T01:06:04.461Z,97940.03
2023-04-02T01:08:44.440Z,97943.56
2023-04-02T01:11:28.429Z,97926.72
2023-04-02T01:14:03.635Z,97914.03
2023-04-02T01:16:42.156Z,97909.81
2023-04-02T01:19:29.736Z,97907.34
2023-04-02T01:22:04.081Z,97898.06
2023-04-02T01:24:34.646Z,97885.47
2023-04-02T01:27:05.218Z,97882.09
2023-04-02T01:29:37.155Z,97887.09
2023-04-02T01:32:08.824Z,97886.28
2023-04-02T01:34:37.866Z,97889.66
2023-04-02T01:37:34.101Z,97878.69
2023-04-02T01:40:14.400Z,97879.59
2023-04-02T01:42:50.463Z,97868.69
2023-04-02T01:45:22.748Z,97867.13
2023-04-02T01:47:51.692Z,97856.06
2023-04-02T01:50:31.412Z,97852.69
2023-04-02T01:53:02.400Z,97846.81
2023-04-02T01:55:40.966Z,97834.13
2023-04-02T01:58:11.385Z,97831.66
2023-04-02T02:00:47.379Z,97828.34
2023-04-02T02:03:16.907Z,97803.94
2023-04-02T02:05:46.324Z,97796.34
2023-04-02T02:08:26.268Z,97782.88
2023-04-02T02:10:54.025Z,97776.22
2023-04-02T02:13:23.015Z,97775.38
2023-04-02T02:15:52.535Z,97773.72
2023-04-02T02:18:24.153Z,97772.09
2023-04-02T02:20:53.071Z,97770.34
2023-04-02T02:23:21.890Z,97768.69
2023-04-02T02:25:49.661Z,97767.03
2023-04-02T02:28:23.255Z,97750.97
2023-04-02T02:30:57.401Z,97746.03
2023-04-02T02:33:27.911Z,97735.03
2023-04-02T02:36:03.225Z,97708.97
2023-04-02T02:38:57.330Z,97690.44
2023-04-02T02:41:38.904Z,97677.91
2023-04-02T02:44:15.437Z,97661.94
2023-04-02T02:46:50.981Z,97648.44
2023-04-02T02:49:23.205Z,97651.84
2023-04-02T02:51:58.568Z,97655.22
2023-04-02T02:54:34.247Z,97651.03
2023-04-02T02:57:07.452Z,97635.06
2023-04-02T02:59:35.878Z,97625.84
2023-04-02T03:02:07.260Z,97620.75
2023-04-02T03:04:37.082Z,97624.16
2023-04-02T03:07:10.596Z,97625.88
2023-04-02T03:09:48.082Z,97611.56
2023-04-02T03:12:30.708Z,97610.75
2023-04-02T03:15:03.384Z,97611.56
2023-04-02T03:17:38.422Z,97605.72
2023-04-02T03:20:14.599Z,97614.19
2023-04-02T03:22:48.201Z,97612.47
2023-04-02T03:25:25.891Z,97604.06
2023-04-02T03:28:02.845Z,97593.09
2023-04-02T03:30:37.936Z,97585.59
2023-04-02T03:33:15.316Z,97552.00
2023-04-02T03:35:47.780Z,97535.19
2023-04-02T03:38:21.176Z,97529.34
2023-04-02T03:41:00.564Z,97520.06
2023-04-02T03:43:35.733Z,97524.31
2023-04-02T03:46:23.957Z,97525.97
2023-04-02T03:48:56.896Z,97526.06
2023-04-02T03:51:28.506Z,97511.72
2023-04-02T03:53:57.164Z,97494.94
2023-04-02T03:56:31.483Z,97486.50
2023-04-02T03:59:13.206Z,97476.41
2023-04-02T04:01:47.385Z,97467.31
2023-04-02T04:04:19.517Z,97439.53
2023-04-02T04:06:52.357Z,97432.78
2023-04-02T04:09:25.146Z,97411.88
2023-04-02T04:11:56.403Z,97384.94
2023-04-02T04:14:32.219Z,97364.88
2023-04-02T04:17:05.703Z,97356.41
2023-04-02T04:19:45.551Z,97364.03
2023-04-02T04:22:18.924Z,97362.31
2023-04-02T04:24:50.164Z,97367.41
2023-04-02T04:27:25.705Z,97363.97
2023-04-02T04:29:59.348Z,97369.06
2023-04-02T04:32:33.642Z,97371.59
2023-04-02T04:35:21.978Z,97369.13
2023-04-02T04:37:58.654Z,97351.38
2023-04-02T04:40:30.826Z,97348.09
2023-04-02T04:43:05.446Z,97338.03
2023-04-02T04:45:43.517Z,97328.84
2023-04-02T04:48:17.247Z,97323.00
2023-04-02T04:50:54.759Z,97310.41
2023-04-02T04:53:27.012Z,97310.47
2023-04-02T04:56:12.142Z,97293.69
2023-04-02T04:58:49.568Z,97266.06
2023-04-02T05:01:23.059Z,97239.13
2023-04-02T05:03:56.156Z,97237.47
2023-04-02T05:06:35.318Z,97233.34
2023-04-02T05:09:13.354Z,97238.38
2023-04-02T05:11:46.500Z,97237.56
2023-04-02T05:14:23.158Z,97221.59
2023-04-02T05:16:57.413Z,97199.81
2023-04-02T05:19:33.113Z,97191.44
2023-04-02T05:22:13.301Z,97187.25
2023-04-02T05:24:51.693Z,97182.25
2023-04-02T05:27:27.738Z,97180.56
2023-04-02T05:30:02.174Z,97178.94
2023-04-02T05:32:33.151Z,97175.56
2023-04-02T05:35:02.036Z,97162.19
2023-04-02T05:37:32.060Z,97151.31
2023-04-02T05:40:12.834Z,97134.56
2023-04-02T05:42:46.218Z,97126.09
2023-04-02T05:45:23.864Z,97128.72
2023-04-02T05:47:59.808Z,97127.00
2023-04-02T05:50:37.215Z,97104.25
2023-04-02T05:53:15.375Z,97105.22
2023-04-02T05:55:52.015Z,97102.69
2023-04-02T06:01:08.699Z,97104.34
2023-04-02T06:03:46.020Z,97116.97
2023-04-02T06:06:23.899Z,97111.16
2023-04-02T06:08:59.562Z,97097.69
2023-04-02T06:11:32.188Z,97092.66
2023-04-02T06:14:02.320Z,97081.00
2023-04-02T06:16:33.414Z,97062.50
2023-04-02T06:19:01.503Z,97068.41
2023-04-02T06:21:29.370Z,97040.78
2023-04-02T06:24:03.321Z,97033.28
2023-04-02T06:26:35.252Z,97034.09
2023-04-02T06:29:09.684Z,97041.63
2023-04-02T06:31:43.397Z,97047.50
2023-04-02T06:34:17.209Z,97039.94
2023-04-02T06:36:56.628Z,97030.81
2023-04-02T06:39:28.190Z,97039.19
2023-04-02T06:42:02.341Z,97039.88
2023-04-02T06:44:53.655Z,97046.72
2023-04-02T06:47:44.290Z,97045.84
2023-04-02T06:50:23.247Z,97055.13
2023-04-02T06:52:53.797Z,97058.41
2023-04-02T06:55:34.057Z,97053.31
2023-04-02T06:58:02.394Z,97062.59
2023-04-02T07:00:36.807Z,97065.06
2023-04-02T07:03:08.686Z,97085.28
2023-04-02T07:05:36.920Z,97087.81
2023-04-02T07:08:05.118Z,97097.75
2023-04-02T07:10:34.657Z,97109.59
2023-04-02T07:13:02.838Z,97101.09
2023-04-02T07:15:31.248Z,97098.66
2023-04-02T07:18:00.273Z,97097.75
2023-04-02T07:20:31.129Z,97099.47
2023-04-02T07:23:03.015Z,97107.88
2023-04-02T07:25:30.934Z,97110.41
2023-04-02T07:28:01.412Z,97121.97
2023-04-02T07:30:29.138Z,97136.34
2023-04-02T07:32:56.916Z,97141.44
2023-04-02T07:35:24.737Z,97149.75
2023-04-02T07:37:52.868Z,97165.69
2023-04-02T07:40:22.888Z,97164.84
2023-04-02T07:42:51.155Z,97161.34
2023-04-02T07:45:20.670Z,97178.28
2023-04-02T07:47:48.477Z,97195.00
2023-04-02T07:50:16.394Z,97189.09
2023-04-02T07:52:44.784Z,97202.59
2023-04-02T07:55:14.180Z,97205.06
2023-04-02T07:57:49.272Z,97208.44
2023-04-02T08:00:18.157Z,97199.97
2023-04-02T08:02:47.515Z,97218.53
2023-04-02T08:05:15.869Z,97215.09
2023-04-02T08:07:43.812Z,97211.81
2023-04-02T08:10:13.625Z,97208.44
2023-04-02T08:12:41.400Z,97210.97
2023-04-02T08:15:11.178Z,97212.53
2023-04-02T08:17:38.927Z,97229.41
2023-04-02T08:20:11.916Z,97237.78
2023-04-02T08:22:39.693Z,97250.44
2023-04-02T08:25:08.224Z,97251.16
2023-04-02T08:27:36.188Z,97272.22
2023-04-02T08:30:04.525Z,97283.16
2023-04-02T08:32:32.275Z,97278.78
2023-04-02T08:35:00.132Z,97280.53
2023-04-02T08:37:29.351Z,97283.88
2023-04-02T08:39:57.154Z,97294.84
2023-04-02T08:42:32.114Z,97300.75
2023-04-02T08:45:23.672Z,97312.44
2023-04-02T08:47:55.936Z,97328.41
2023-04-02T08:50:30.970Z,97335.97
2023-04-02T08:53:01.498Z,97327.56
2023-04-02T08:55:38.331Z,97326.75
2023-04-02T08:58:17.456Z,97317.47
2023-04-02T09:00:46.628Z,97298.22
2023-04-02T09:03:19.048Z,97290.66
2023-04-02T09:05:48.799Z,97304.13
2023-04-02T09:08:20.776Z,97308.22
2023-04-02T09:10:54.746Z,97325.03
2023-04-02T09:13:25.611Z,97325.94
2023-04-02T09:15:59.743Z,97340.97
2023-04-02T09:18:31.856Z,97347.72
2023-04-02T09:21:01.357Z,97352.75
2023-04-02T09:23:30.643Z,97340.97
2023-04-02T09:26:04.276Z,97342.69
2023-04-02T09:28:32.770Z,97333.41
2023-04-02T09:31:07.415Z,97340.16
2023-04-02T09:33:43.956Z,97341.88
2023-04-02T09:36:33.871Z,97357.84
2023-04-02T09:39:07.311Z,97373.78
2023-04-02T09:41:37.385Z,97386.31
2023-04-02T09:44:21.136Z,97401.34
2023-04-02T09:46:52.942Z,97411.47
2023-04-02T09:49:25.122Z,97408.09
2023-04-02T09:52:20.584Z,97413.16
2023-04-02T09:55:17.690Z,97412.25
2023-04-02T09:57:46.166Z,97430.00
2023-04-02T10:00:39.703Z,97435.84
2023-04-02T10:03:24.387Z,97433.38
2023-04-02T10:06:06.448Z,97415.59
2023-04-02T10:08:34.646Z,97433.38
2023-04-02T10:11:09.107Z,97425.81
2023-04-02T10:13:45.305Z,97429.16
2023-04-02T10:16:20.543Z,97443.41
2023-04-02T10:18:52.360Z,97445.06
2023-04-02T10:21:25.670Z,97456.09
2023-04-02T10:23:53.693Z,97456.00
2023-04-02T10:26:48.706Z,97470.22
2023-04-02T10:29:42.614Z,97494.53
2023-04-02T10:32:15.984Z,97515.63
2023-04-02T10:34:52.980Z,97560.06
2023-04-02T10:37:48.275Z,97611.31
2023-04-02T10:40:22.166Z,97647.44
2023-04-02T10:43:00.138Z,97678.56
2023-04-02T10:45:39.065Z,97711.22
2023-04-02T10:48:17.214Z,97721.34
2023-04-02T10:50:51.774Z,97739.84
2023-04-02T10:53:21.434Z,97752.50
2023-04-02T10:55:53.765Z,97776.84
2023-04-02T10:58:25.676Z,97807.94
2023-04-02T11:00:57.766Z,97808.84
2023-04-02T11:03:34.458Z,97824.78
2023-04-02T11:06:06.589Z,97838.28
2023-04-02T11:08:42.432Z,97854.97
2023-04-02T11:11:14.425Z,97868.41
2023-04-02T11:13:53.516Z,97876.91
2023-04-02T11:16:22.079Z,97876.84
2023-04-02T11:19:25.859Z,97872.66
2023-04-02T11:22:00.036Z,97899.59
2023-04-02T11:24:43.524Z,97900.44
2023-04-02T11:27:22.345Z,97931.63
2023-04-02T11:29:54.938Z,97948.47
2023-04-02T11:32:30.509Z,97986.44
2023-04-02T11:35:07.052Z,98013.22
2023-04-02T11:37:38.490Z,98068.13
2023-04-02T11:40:39.101Z,98084.06
2023-04-02T11:43:41.429Z,98107.53
2023-04-02T11:46:37.030Z,98110.91
2023-04-02T11:49:49.443Z,98121.13
2023-04-02T11:52:26.512Z,98116.88
2023-04-02T11:55:00.613Z,98132.00
2023-04-02T11:57:40.975Z,98155.63
2023-04-02T12:00:34.220Z,98158.94
2023-04-02T12:03:25.601Z,98173.34
2023-04-02T12:06:00.452Z,98182.59
2023-04-02T12:08:54.271Z,98170.78
2023-04-02T12:11:33.385Z,98165.66
2023-04-02T12:14:02.098Z,98174.16
2023-04-02T12:16:34.652Z,98190.19
2023-04-02T12:19:09.019Z,98202.78
2023-04-02T12:21:38.777Z,98219.63
2023-04-02T12:24:07.661Z,98223.00
2023-04-02T12:26:38.342Z,98234.06
2023-04-02T12:29:24.748Z,98233.94
2023-04-02T12:31:53.419Z,98247.50
2023-04-02T12:34:25.137Z,98250.88
2023-04-02T12:36:55.016Z,98254.19
2023-04-02T12:39:24.674Z,98261.84
2023-04-02T12:41:54.817Z,98255.88
2023-04-02T12:44:24.408Z,98269.41
2023-04-02T12:46:53.364Z,98279.50
2023-04-02T12:49:38.242Z,98292.16
2023-04-02T12:52:09.734Z,98302.31
2023-04-02T12:54:44.905Z,98318.31
2023-04-02T12:57:39.119Z,98328.47
2023-04-02T13:00:33.836Z,98325.91
2023-04-02T13:03:16.229Z,98314.13
2023-04-02T13:05:50.842Z,98306.53
2023-04-02T13:08:21.451Z,98305.63
2023-04-02T13:10:54.706Z,98313.25
2023-04-02T13:13:27.763Z,98312.41
2023-04-02T13:16:08.281Z,98311.50
2023-04-02T13:18:38.682Z,98326.75
2023-04-02T13:21:25.420Z,98325.91
2023-04-02T13:23:54.586Z,98353.78
2023-04-02T13:26:24.419Z,98354.53
2023-04-02T13:29:00.566Z,98388.38
2023-04-02T13:31:28.956Z,98417.84
2023-04-02T13:33:56.777Z,98441.47
2023-04-02T13:36:26.588Z,98469.44
2023-04-02T13:38:54.390Z,98460.06
2023-04-02T13:41:26.343Z,98487.09
2023-04-02T13:43:55.120Z,98509.94
2023-04-02T13:46:26.346Z,98520.03
2023-04-02T13:48:55.844Z,98511.53
2023-04-02T13:51:28.571Z,98515.81
2023-04-02T13:53:58.478Z,98510.78
2023-04-02T13:56:26.287Z,98504.00
2023-04-02T13:58:54.068Z,98481.13
2023-04-02T14:01:26.099Z,98466.03
2023-04-02T14:03:55.614Z,98428.72
2023-04-02T14:06:36.207Z,98434.78
2023-04-02T14:09:06.947Z,98419.50
2023-04-02T14:11:49.159Z,98429.63
2023-04-02T14:14:35.636Z,98440.69
2023-04-02T14:17:14.946Z,98435.50
2023-04-02T14:19:53.575Z,98440.63
2023-04-02T14:22:36.041Z,98456.69
2023-04-02T14:25:15.708Z,98470.28
2023-04-02T14:27:52.868Z,98470.28
2023-04-02T14:30:28.218Z,98469.38
2023-04-02T14:33:01.454Z,98501.50
2023-04-02T14:35:36.253Z,98516.59
2023-04-02T14:38:13.885Z,98549.63
2023-04-02T14:40:49.349Z,98566.44
2023-04-02T14:43:21.239Z,98598.59
2023-04-02T14:46:00.319Z,98601.09
2023-04-02T14:48:44.337Z,98590.97
2023-04-02T14:51:18.513Z,98574.03
2023-04-02T14:53:55.576Z,98564.72
2023-04-02T14:56:25.810Z,98549.50
2023-04-02T14:59:03.640Z,98554.69
2023-04-02T15:01:37.810Z,98573.16
2023-04-02T15:04:09.460Z,98603.56
2023-04-02T15:06:42.738Z,98633.22
2023-04-02T15:09:18.559Z,98700.81
2023-04-02T15:11:51.723Z,98732.06
2023-04-02T15:14:24.752Z,98767.63
2023-04-02T15:16:52.650Z,98744.75
2023-04-02T15:19:21.034Z,98732.00
2023-04-02T15:22:08.737Z,98731.25
2023-04-02T15:24:48.687Z,98725.22
2023-04-02T15:27:30.033Z,98722.78
2023-04-02T15:30:04.510Z,98708.38
2023-04-02T15:32:38.730Z,98708.44
2023-04-02T15:35:22.519Z,98698.25
2023-04-02T15:37:59.316Z,98668.66
2023-04-02T15:40:52.405Z,98640.81
2023-04-02T15:43:22.414Z,98643.41
2023-04-02T15:45:59.266Z,98630.66
2023-04-02T15:48:58.377Z,98620.50
2023-04-02T15:51:36.399Z,98618.75
2023-04-02T15:54:14.175Z,98628.09
2023-04-02T15:56:53.548Z,98634.84
2023-04-02T15:59:58.110Z,98631.50
2023-04-02T16:02:40.581Z,98615.38
2023-04-02T16:05:18.534Z,98609.47
2023-04-02T16:08:03.281Z,98593.47
2023-04-02T16:10:40.895Z,98582.47
2023-04-02T16:13:18.849Z,98563.81
2023-04-02T16:15:52.767Z,98549.50
2023-04-02T16:18:31.729Z,98539.34
2023-04-02T16:21:02.448Z,98536.81
2023-04-02T16:23:34.968Z,98531.75
2023-04-02T16:26:13.062Z,98532.59
2023-04-02T16:28:55.556Z,98521.59
2023-04-02T16:31:34.153Z,98525.81
2023-04-02T16:34:10.906Z,98521.59
2023-04-02T16:36:46.165Z,98503.78
2023-04-02T16:39:26.116Z,98489.47
2023-04-02T16:42:04.589Z,98476.03
2023-04-02T16:44:44.731Z,98461.56
2023-04-02T16:47:27.912Z,98455.75
2023-04-02T16:50:02.963Z,98449.84
2023-04-02T16:52:42.238Z,98443.91
2023-04-02T16:55:24.329Z,98438.84
2023-04-02T16:58:01.496Z,98431.22
2023-04-02T17:00:38.910Z,98408.31
2023-04-02T17:03:28.841Z,98410.19
2023-04-02T17:06:02.615Z,98387.34
2023-04-02T17:08:37.642Z,98383.13
2023-04-02T17:11:08.354Z,98374.63
2023-04-02T17:13:41.827Z,98360.22
2023-04-02T17:16:19.837Z,98363.69
2023-04-02T17:18:49.855Z,98361.97
2023-04-02T17:21:22.427Z,98354.34
2023-04-02T17:26:24.404Z,98337.47
2023-04-02T17:28:53.886Z,98327.38
2023-04-02T17:31:24.908Z,98310.56
2023-04-02T17:33:52.704Z,98292.78
2023-04-02T17:36:32.875Z,98277.56
2023-04-02T17:39:10.652Z,98270.06
2023-04-02T17:41:44.117Z,98259.94
2023-04-02T17:44:33.256Z,98248.13
2023-04-02T17:47:12.486Z,98238.84
2023-04-02T17:49:49.635Z,98237.13
2023-04-02T17:52:25.701Z,98229.59
2023-04-02T17:55:03.680Z,98224.53
2023-04-02T17:57:55.055Z,98206.72
2023-04-02T18:00:36.977Z,98201.66
2023-04-02T18:03:29.962Z,98187.38
2023-04-02T18:06:03.200Z,98177.25
2023-04-02T18:08:42.665Z,98170.50
2023-04-02T18:11:14.624Z,98176.44
2023-04-02T18:13:43.962Z,98175.69
2023-04-02T18:16:25.854Z,98162.13
2023-04-02T18:19:10.007Z,98158.75
2023-04-02T18:21:44.227Z,98148.66
2023-04-02T18:24:26.807Z,98143.63
2023-04-02T18:27:06.614Z,98126.69
2023-04-02T18:29:44.057Z,98120.75
2023-04-02T18:32:33.986Z,98119.16
2023-04-02T18:35:10.043Z,98116.59
2023-04-02T18:37:43.797Z,98114.94
2023-04-02T18:40:31.675Z,98101.47
2023-04-02T18:43:05.922Z,98097.28
2023-04-02T18:45:44.282Z,98097.28
2023-04-02T18:48:28.939Z,98098.09
2023-04-02T18:51:00.851Z,98078.59
2023-04-02T18:53:32.239Z,98078.59
2023-04-02T18:56:04.815Z,98071.09
2023-04-02T18:58:38.846Z,98070.25
2023-04-02T19:01:07.863Z,98060.13
2023-04-02T19:03:41.930Z,98051.66
2023-04-02T19:06:19.158Z,98047.47
2023-04-02T19:08:51.257Z,98055.03
2023-04-02T19:11:22.141Z,98050.84
2023-04-02T19:13:51.366Z,98043.25
2023-04-02T19:16:34.102Z,98041.59
2023-04-02T19:19:11.564Z,98025.56
2023-04-02T19:21:55.371Z,98023.91
2023-04-02T19:24:37.720Z,98023.06
2023-04-02T19:27:14.703Z,98018.03
2023-04-02T19:29:57.657Z,98007.06
2023-04-02T19:32:34.595Z,98002.03
2023-04-02T19:35:11.776Z,98003.78
2023-04-02T19:37:44.183Z,97996.97
2023-04-02T19:40:23.891Z,97998.72
2023-04-02T19:42:53.303Z,97986.84
2023-04-02T19:45:38.692Z,97980.06
2023-04-02T19:48:17.244Z,97979.31
2023-04-02T19:50:46.025Z,97975.13
2023-04-02T19:53:15.931Z,97964.94
2023-04-02T19:55:44.472Z,97960.75
2023-04-02T19:58:23.885Z,97968.34
2023-04-02T20:00:51.711Z,97964.94
2023-04-02T20:03:19.614Z,97954.81
2023-04-02T20:05:47.594Z,97955.72
2023-04-02T20:08:16.803Z,97954.06
2023-04-02T20:10:45.744Z,97948.13
2023-04-02T20:13:13.675Z,97941.38
2023-04-02T20:15:41.855Z,97932.94
2023-04-02T20:18:10.837Z,97932.19
2023-04-02T20:20:39.095Z,97920.31
2023-04-02T20:23:06.946Z,97917.00
2023-04-02T20:25:36.282Z,97906.88
2023-04-02T20:28:04.225Z,97890.03
2023-04-02T20:30:33.017Z,97884.16
2023-04-02T20:33:01.256Z,97864.75
2023-04-02T20:35:29.769Z,97854.72
2023-04-02T20:37:57.756Z,97840.41
2023-04-02T20:40:25.898Z,97829.53
2023-04-02T20:42:55.069Z,97818.53
2023-04-02T20:45:24.301Z,97812.69
2023-04-02T20:47:52.191Z,97800.91
2023-04-02T20:50:20.069Z,97794.97
2023-04-02T20:52:48.102Z,97788.28
2023-04-02T20:55:15.994Z,97789.16
2023-04-02T20:57:43.800Z,97772.28
2023-04-02T21:00:14.652Z,97766.44
2023-04-02T21:02:42.459Z,97762.28
2023-04-02T21:05:10.620Z,97754.72
2023-04-02T21:07:38.485Z,97740.38
2023-04-02T21:10:06.888Z,97734.50
2023-04-02T21:12:34.609Z,97716.78
2023-04-02T21:15:02.963Z,97710.94
2023-04-02T21:17:32.414Z,97711.03
2023-04-02T21:20:00.243Z,97697.56
2023-04-02T21:22:28.043Z,97682.41
2023-04-02T21:24:55.848Z,97663.94
2023-04-02T21:27:25.908Z,97655.59
2023-04-02T21:29:53.966Z,97645.47
2023-04-02T21:32:22.304Z,97623.56
2023-04-02T21:34:51.644Z,97610.13
2023-04-02T21:37:19.363Z,97600.09
2023-04-02T21:39:47.215Z,97589.97
2023-04-02T21:42:15.139Z,97590.91
2023-04-02T21:44:42.942Z,97583.34
2023-04-02T21:47:11.075Z,97575.78
2023-04-02T21:49:38.908Z,97568.22
2023-04-02T21:52:08.065Z,97554.75
2023-04-02T21:54:35.897Z,97548.09
2023-04-02T21:57:03.751Z,97533.00
2023-04-02T21:59:31.545Z,97517.78
2023-04-02T22:01:59.324Z,97511.88
2023-04-02T22:06:39.715Z,97509.31
2023-04-02T22:09:11.120Z,97507.69
2023-04-02T22:11:41.125Z,97508.56
2023-04-02T22:14:08.892Z,97505.22
2023-04-02T22:16:37.539Z,97496.88
2023-04-02T22:19:06.988Z,97483.47
2023-04-02T22:21:35.231Z,97480.06
2023-04-02T22:24:06.412Z,97470.84
2023-04-02T22:26:35.036Z,97454.00
2023-04-02T22:29:03.291Z,97449.09
2023-04-02T22:31:33.280Z,97437.28
2023-04-02T22:34:02.073Z,97428.88
2023-04-02T22:36:30.388Z,97417.91
2023-04-02T22:38:58.632Z,97404.59
2023-04-02T22:41:29.667Z,97393.59
2023-04-02T22:43:58.720Z,97389.44
2023-04-02T22:46:28.601Z,97370.03
2023-04-02T22:48:56.872Z,97359.19
2023-04-02T22:51:27.493Z,97357.59
2023-04-02T22:53:56.623Z,97341.56
2023-04-02T22:56:28.604Z,97327.31
2023-04-02T22:58:56.523Z,97315.66
2023-04-02T23:01:26.360Z,97297.22
2023-04-02T23:03:55.103Z,97277.97
2023-04-02T23:06:24.442Z,97262.03
2023-04-02T23:08:53.051Z,97240.25
2023-04-02T23:11:22.634Z,97215.91
2023-04-02T23:13:53.567Z,97198.34
2023-04-02T23:16:22.720Z,97179.91
2023-04-02T23:18:51.139Z,97163.97
2023-04-02T23:21:20.833Z,97140.56
2023-04-02T23:23:49.116Z,97119.69
2023-04-02T23:26:18.900Z,97082.81
2023-04-02T23:28:46.801Z,97053.50
2023-04-02T23:31:17.712Z,97031.81
2023-04-02T23:33:46.200Z,97009.03
2023-04-02T23:36:17.416Z,96987.38
2023-04-02T23:38:45.204Z,96960.59
2023-04-02T23:41:15.009Z,96937.16
2023-04-02T23:43:43.037Z,96921.31
2023-04-02T23:46:11.539Z,96897.84
2023-04-02T23:48:41.194Z,96877.00
2023-04-02T23:51:09.154Z,96858.63
2023-04-02T23:53:36.929Z,96843.59
2023-04-02T23:56:04.949Z,96815.97
2023-04-02T23:58:32.943Z,96779.16
